Time,TemperatureF,DewpointF,PressureIn,WindDirection,WindDirectionDegrees,WindSpeedMPH,WindSpeedGustMPH,Humidity,HourlyPrecipIn,Conditions,Clouds,dailyrainin,SoftwareType,DateUTC
2013-08-05 00:02:00,64.0,54.0,-100.00,SW,215,0.0,0.0,70,0.00,,,-99.99,,2013-08-05 04:02:00,
2013-08-05 00:12:00,63.0,55.0,-100.00,SSW,205,0.0,0.0,75,0.00,,,-99.99,,2013-08-05 04:12:00,
2013-08-05 00:22:00,62.0,54.0,-100.00,SSW,205,0.0,0.0,74,0.00,,,-99.99,,2013-08-05 04:22:00,
2013-08-05 00:32:00,62.0,54.0,-100.00,East,95,0.0,0.0,74,0.00,,,-99.99,,2013-08-05 04:32:00,
2013-08-05 00:43:00,62.0,55.0,-100.00,NNE,20,0.0,0.0,77,0.00,,,-99.99,,2013-08-05 04:43:00,
2013-08-05 00:52:00,60.0,55.0,-100.00,East,90,0.0,0.0,82,0.00,,,-99.99,,2013-08-05 04:52:00,
2013-08-05 01:02:00,61.0,55.0,-100.00,SE,130,0.0,0.0,81,0.00,,,-99.99,,2013-08-05 05:02:00,
2013-08-05 01:12:00,61.0,55.0,-100.00,North,355,0.0,0.0,80,0.00,,,-99.99,,2013-08-05 05:12:00,
2013-08-05 01:22:00,60.0,55.0,-100.00,NNE,20,0.0,0.0,83,0.00,,,-99.99,,2013-08-05 05:22:00,
2013-08-05 01:32:00,59.0,55.0,-100.00,NNE,20,0.0,0.0,86,0.00,,,-99.99,,2013-08-05 05:32:00,
2013-08-05 01:42:00,59.0,55.0,-100.00,NNE,15,0.0,0.0,86,0.00,,,-99.99,,2013-08-05 05:42:00,
2013-08-05 01:53:00,59.0,55.0,-100.00,NNE,20,0.0,0.0,88,0.00,,,-99.99,,2013-08-05 05:53:00,
2013-08-05 02:02:00,58.0,55.0,-100.00,NE,35,0.0,0.0,87,0.00,,,-99.99,,2013-08-05 06:02:00,
2013-08-05 02:12:00,59.0,55.0,-100.00,North,10,0.0,0.0,86,0.00,,,-99.99,,2013-08-05 06:12:00,
2013-08-05 02:22:00,58.0,54.0,-100.00,NNW,340,0.0,0.0,85,0.00,,,-99.99,,2013-08-05 06:22:00,
2013-08-05 02:32:00,58.0,54.0,-100.00,NW,310,0.0,0.0,85,0.00,,,-99.99,,2013-08-05 06:32:00,
2013-08-05 02:42:00,58.0,54.0,-100.00,NE,40,0.0,0.0,86,0.00,,,-99.99,,2013-08-05 06:42:00,
2013-08-05 02:52:00,58.0,54.0,-100.00,NNW,335,0.0,0.0,86,0.00,,,-99.99,,2013-08-05 06:52:00,
2013-08-05 03:02:00,58.0,54.0,-100.00,North,0,0.0,0.0,85,0.00,,,-99.99,,2013-08-05 07:02:00,
2013-08-05 03:12:00,58.0,54.0,-100.00,North,0,0.0,0.0,86,0.00,,,-99.99,,2013-08-05 07:12:00,
2013-08-05 03:22:00,58.0,53.0,-100.00,SSW,195,0.0,0.0,84,0.00,,,-99.99,,2013-08-05 07:22:00,
2013-08-05 03:32:00,58.0,53.0,-100.00,SSW,195,0.0,0.0,84,0.00,,,-99.99,,2013-08-05 07:32:00,
2013-08-05 03:43:00,58.0,53.0,-100.00,SSW,210,0.0,0.0,84,0.00,,,-99.99,,2013-08-05 07:43:00,
2013-08-05 03:53:00,58.0,53.0,-100.00,South,175,0.0,0.0,84,0.00,,,-99.99,,2013-08-05 07:53:00,
2013-08-05 04:02:00,58.0,53.0,-100.00,South,185,0.0,0.0,84,0.00,,,-99.99,,2013-08-05 08:02:00,
2013-08-05 04:12:00,57.0,53.0,-100.00,South,180,0.0,0.0,84,0.00,,,-99.99,,2013-08-05 08:12:00,
2013-08-05 04:22:00,58.0,53.0,-100.00,SSW,205,0.0,0.0,84,0.00,,,-99.99,,2013-08-05 08:22:00,
2013-08-05 04:34:00,58.0,53.0,-100.00,SSW,205,0.0,0.0,83,0.00,,,-99.99,,2013-08-05 08:34:00,
2013-08-05 04:53:00,58.0,53.0,-100.00,SSW,205,0.0,0.0,82,0.00,,,-99.99,,2013-08-05 08:53:00,
2013-08-05 05:06:00,58.0,53.0,-100.00,SSW,205,0.0,0.0,82,0.00,,,-99.99,,2013-08-05 09:06:00,
2013-08-05 05:18:00,58.0,53.0,-100.00,SSW,210,0.0,0.0,82,0.00,,,-99.99,,2013-08-05 09:18:00,
2013-08-05 05:27:00,59.0,53.0,-100.00,SW,225,0.0,0.0,81,0.00,,,-99.99,,2013-08-05 09:27:00,
2013-08-05 05:40:00,58.0,53.0,-100.00,SW,215,0.0,0.0,82,0.00,,,-99.99,,2013-08-05 09:40:00,
2013-08-05 05:47:00,58.0,53.0,-100.00,NW,315,0.0,0.0,82,0.00,,,-99.99,,2013-08-05 09:47:00,
2013-08-05 05:53:00,58.0,53.0,-100.00,ENE,60,0.0,0.0,84,0.00,,,-99.99,,2013-08-05 09:53:00,
2013-08-05 06:16:00,57.0,53.0,-100.00,NNW,340,0.0,0.0,86,0.00,,,-99.99,,2013-08-05 10:16:00,
2013-08-05 06:27:00,57.0,53.0,-100.00,North,0,0.0,0.0,88,0.00,,,-99.99,,2013-08-05 10:27:00,
2013-08-05 06:34:00,56.0,53.0,-100.00,North,0,0.0,0.0,90,0.00,,,-99.99,,2013-08-05 10:34:00,
2013-08-05 06:47:00,57.0,53.0,-100.00,North,0,0.0,0.0,87,0.00,,,-99.99,,2013-08-05 10:47:00,
2013-08-05 06:52:00,57.0,53.0,-100.00,NNE,20,0.0,0.0,87,0.00,,,-99.99,,2013-08-05 10:52:00,
2013-08-05 07:09:00,57.0,53.0,-100.00,North,0,0.0,0.0,85,0.00,,,-99.99,,2013-08-05 11:09:00,
2013-08-05 07:38:00,58.0,53.0,-100.00,NNW,345,0.0,0.0,84,0.00,,,-99.99,,2013-08-05 11:38:00,
2013-08-05 07:49:00,59.0,53.0,-100.00,North,0,0.0,0.0,82,0.00,,,-99.99,,2013-08-05 11:49:00,
2013-08-05 07:57:00,59.0,54.0,-100.00,SSE,150,0.0,0.0,83,0.00,,,-99.99,,2013-08-05 11:57:00,
2013-08-05 08:17:00,62.0,54.0,-100.00,SW,235,0.0,0.0,75,0.00,,,-99.99,,2013-08-05 12:17:00,
2013-08-05 08:28:00,62.0,55.0,-100.00,NNE,15,0.0,0.0,77,0.00,,,-99.99,,2013-08-05 12:28:00,
2013-08-05 08:33:00,63.0,55.0,-100.00,West,280,0.0,0.0,74,0.00,,,-99.99,,2013-08-05 12:33:00,
2013-08-05 08:49:00,64.0,55.0,-100.00,West,275,0.0,0.0,72,0.00,,,-99.99,,2013-08-05 12:49:00,
2013-08-05 08:56:00,65.0,55.0,-100.00,West,270,0.0,0.0,71,0.00,,,-99.99,,2013-08-05 12:56:00,
2013-08-05 09:02:00,65.0,55.0,-100.00,WNW,290,0.0,0.0,70,0.00,,,-99.99,,2013-08-05 13:02:00,
2013-08-05 09:14:00,66.0,56.0,-100.00,WNW,295,0.0,0.0,69,0.00,,,-99.99,,2013-08-05 13:14:00,
2013-08-05 09:27:00,67.0,56.0,-100.00,West,265,0.0,0.0,68,0.00,,,-99.99,,2013-08-05 13:27:00,
2013-08-05 09:39:00,67.0,56.0,-100.00,WNW,300,0.0,0.0,69,0.00,,,-99.99,,2013-08-05 13:39:00,
2013-08-05 09:54:00,67.0,56.0,-100.00,WNW,290,0.0,0.0,67,0.00,,,-99.99,,2013-08-05 13:54:00,
2013-08-05 10:06:00,67.0,56.0,-100.00,West,260,0.0,0.0,65,0.00,,,-99.99,,2013-08-05 14:06:00,
2013-08-05 10:17:00,68.0,56.0,-100.00,NW,305,0.0,0.0,66,0.00,,,-99.99,,2013-08-05 14:17:00,
2013-08-05 10:39:00,69.0,56.0,-100.00,WSW,255,0.0,0.0,63,0.00,,,-99.99,,2013-08-05 14:39:00,
2013-08-05 10:47:00,69.0,56.0,-100.00,NW,305,0.0,0.0,63,0.00,,,-99.99,,2013-08-05 14:47:00,
2013-08-05 10:54:00,69.0,55.0,-100.00,West,270,0.0,0.0,61,0.00,,,-99.99,,2013-08-05 14:54:00,
2013-08-05 11:08:00,69.0,55.0,-100.00,North,0,0.0,0.0,60,0.00,,,-99.99,,2013-08-05 15:08:00,
2013-08-05 11:57:00,72.0,55.0,-100.00,NNE,15,0.0,0.0,55,0.00,,,-99.99,,2013-08-05 15:57:00,
2013-08-05 12:09:00,73.0,54.0,-100.00,NNW,345,0.0,0.0,51,0.00,,,-99.99,,2013-08-05 16:09:00,
2013-08-05 12:33:00,74.0,55.0,-100.00,South,185,0.0,0.0,52,0.00,,,-99.99,,2013-08-05 16:33:00,
2013-08-05 12:45:00,75.0,56.0,-100.00,NNW,345,0.0,0.0,52,0.00,,,-99.99,,2013-08-05 16:45:00,
2013-08-05 13:37:00,73.0,55.0,-100.00,North,5,0.0,0.0,52,0.00,,,-99.99,,2013-08-05 17:37:00,
2013-08-05 13:48:00,75.0,54.0,-100.00,SSW,200,0.0,0.0,49,0.00,,,-99.99,,2013-08-05 17:48:00,
2013-08-05 14:08:00,76.0,56.0,-100.00,WNW,295,0.0,0.0,49,0.00,,,-99.99,,2013-08-05 18:08:00,
2013-08-05 15:14:00,75.0,55.0,-100.00,WNW,290,0.0,0.0,49,0.00,,,-99.99,,2013-08-05 19:14:00,
2013-08-05 15:50:00,75.0,55.0,-100.00,WNW,300,0.0,0.0,49,0.00,,,-99.99,,2013-08-05 19:50:00,
2013-08-05 16:38:00,76.0,54.0,-100.00,NE,35,0.0,0.0,46,0.00,,,-99.99,,2013-08-05 20:38:00,
2013-08-05 16:48:00,75.0,55.0,-100.00,North,355,0.0,0.0,48,0.00,,,-99.99,,2013-08-05 20:48:00,
2013-08-05 17:08:00,75.0,56.0,-100.00,NW,310,0.0,0.0,51,0.00,,,-99.99,,2013-08-05 21:08:00,
2013-08-05 17:34:00,75.0,56.0,-100.00,WSW,240,0.0,0.0,51,0.00,,,-99.99,,2013-08-05 21:34:00,
2013-08-05 17:47:00,75.0,56.0,-100.00,NW,305,0.0,0.0,52,0.00,,,-99.99,,2013-08-05 21:47:00,
2013-08-05 17:53:00,74.0,55.0,-100.00,WNW,295,0.0,0.0,51,0.00,,,-99.99,,2013-08-05 21:53:00,
2013-08-05 18:05:00,74.0,55.0,-100.00,WNW,290,0.0,0.0,52,0.00,,,-99.99,,2013-08-05 22:05:00,
2013-08-05 18:15:00,74.0,56.0,-100.00,West,275,0.0,0.0,53,0.00,,,-99.99,,2013-08-05 22:15:00,
2013-08-05 18:37:00,73.0,55.0,-100.00,West,275,0.0,0.0,53,0.00,,,-99.99,,2013-08-05 22:37:00,
2013-08-05 18:44:00,73.0,55.0,-100.00,WNW,290,0.0,0.0,52,0.00,,,-99.99,,2013-08-05 22:44:00,
2013-08-05 18:53:00,73.0,55.0,-100.00,West,275,0.0,0.0,54,0.00,,,-99.99,,2013-08-05 22:53:00,
2013-08-05 19:07:00,73.0,56.0,-100.00,WNW,285,0.0,0.0,55,0.00,,,-99.99,,2013-08-05 23:07:00,
2013-08-05 19:16:00,73.0,56.0,-100.00,WNW,295,0.0,0.0,55,0.00,,,-99.99,,2013-08-05 23:16:00,
2013-08-05 19:27:00,73.0,57.0,-100.00,West,275,0.0,0.0,57,0.00,,,-99.99,,2013-08-05 23:27:00,
2013-08-05 19:33:00,73.0,57.0,-100.00,West,275,0.0,0.0,56,0.00,,,-99.99,,2013-08-05 23:33:00,
2013-08-05 19:46:00,73.0,57.0,-100.00,West,280,0.0,0.0,57,0.00,,,-99.99,,2013-08-05 23:46:00,
2013-08-05 20:02:00,72.0,58.0,-100.00,West,275,0.0,0.0,60,0.00,,,-99.99,,2013-08-06 00:02:00,
2013-08-05 20:15:00,72.0,57.0,-100.00,West,280,0.0,0.0,59,0.00,,,-99.99,,2013-08-06 00:15:00,
2013-08-05 20:24:00,72.0,57.0,-100.00,SSE,160,0.0,0.0,59,0.00,,,-99.99,,2013-08-06 00:24:00,
2013-08-05 20:37:00,72.0,57.0,-100.00,North,5,0.0,0.0,59,0.00,,,-99.99,,2013-08-06 00:37:00,
2013-08-05 20:45:00,71.0,56.0,-100.00,SE,130,0.0,0.0,59,0.00,,,-99.99,,2013-08-06 00:45:00,
2013-08-05 20:57:00,71.0,57.0,-100.00,WSW,255,0.0,0.0,61,0.00,,,-99.99,,2013-08-06 00:57:00,
2013-08-05 21:09:00,71.0,57.0,-100.00,West,280,0.0,0.0,62,0.00,,,-99.99,,2013-08-06 01:09:00,
2013-08-05 21:27:00,70.0,58.0,-100.00,West,265,0.0,0.0,65,0.00,,,-99.99,,2013-08-06 01:27:00,
2013-08-05 21:40:00,70.0,58.0,-100.00,North,5,0.0,0.0,65,0.00,,,-99.99,,2013-08-06 01:40:00,
2013-08-05 21:49:00,69.0,57.0,-100.00,NW,310,0.0,0.0,65,0.00,,,-99.99,,2013-08-06 01:49:00,
2013-08-05 21:56:00,70.0,57.0,-100.00,NNE,20,0.0,0.0,65,0.00,,,-99.99,,2013-08-06 01:56:00,
2013-08-05 22:09:00,69.0,58.0,-100.00,West,270,0.0,0.0,66,0.00,,,-99.99,,2013-08-06 02:09:00,
2013-08-05 22:15:00,69.0,58.0,-100.00,WNW,300,0.0,0.0,66,0.00,,,-99.99,,2013-08-06 02:15:00,
2013-08-05 22:32:00,69.0,57.0,-100.00,West,275,0.0,0.0,66,0.00,,,-99.99,,2013-08-06 02:32:00,
2013-08-05 23:02:00,69.0,58.0,-100.00,West,270,0.0,0.0,69,0.00,,,-99.99,,2013-08-06 03:02:00,
2013-08-05 23:26:00,68.0,58.0,-100.00,WNW,300,0.0,0.0,69,0.00,,,-99.99,,2013-08-06 03:26:00,
2013-08-05 23:35:00,68.0,58.0,-100.00,WNW,285,0.0,0.0,68,0.00,,,-99.99,,2013-08-06 03:35:00,